Time;durP1;ratioP1;P1;durP2;ratioP2;P2;SDS_P1;SDS_P2;PMS_P1;PMS_P2;Temp;Humidity;BMP_temperature;BMP_pressure;BME280_temperature;BME280_humidity;BME280_pressure;Samples;Min_cycle;Max_cycle;Signal;HPM_P1;HPM_P2
2022/06/30 00:14:21;;;;;;;11.85;3.50;;;;;;;19.53;71.51;99877.91;30867686;28;96706;-72
2022/06/30 00:29:21;;;;;;;6.97;3.35;;;;;;;19.30;73.09;99940.03;30865953;28;96814;-72
2022/06/30 00:44:22;;;;;;;6.28;2.60;;;;;;;19.39;74.42;99968.34;30865558;28;96640;-69
2022/06/30 00:59:24;;;;;;;6.87;2.97;;;;;;;19.43;74.72;99996.53;30862464;28;96729;-69
2022/06/30 01:14:24;;;;;;;;;;;;;;;18.75;75.84;100119.97;30862413;28;96643;-70
2022/06/30 01:29:24;;;;;;;8.05;4.10;;;;;;;18.76;77.07;100025.31;30861669;28;97242;-72
2022/06/30 01:44:25;;;;;;;7.82;4.43;;;;;;;18.67;77.82;99931.44;30859433;28;96639;-72
2022/06/30 01:59:25;;;;;;;7.97;3.97;;;;;;;18.57;78.23;99913.09;30858423;28;96642;-71
2022/06/30 02:14:26;;;;;;;6.53;3.75;;;;;;;18.34;78.79;99884.19;30858091;28;97331;-72
2022/06/30 02:29:26;;;;;;;9.73;3.80;;;;;;;18.30;79.30;99858.72;30855774;28;97280;-72
2022/06/30 02:44:26;;;;;;;7.50;3.67;;;;;;;18.25;79.68;99803.63;30854599;28;96688;-72
2022/06/30 02:59:27;;;;;;;6.63;3.78;;;;;;;18.23;79.97;99837.25;30852550;28;117214;-72
2022/06/30 03:14:27;;;;;;;6.80;3.55;;;;;;;18.21;80.48;99914.84;30851784;28;96931;-68
2022/06/30 03:29:28;;;;;;;7.18;4.40;;;;;;;18.39;80.84;99944.47;30851398;28;96682;-68
2022/06/30 03:44:28;;;;;;;6.70;3.60;;;;;;;18.56;80.90;99985.13;30850565;28;96634;-72
2022/06/30 03:59:29;;;;;;;6.30;3.80;;;;;;;18.75;80.97;99987.75;30867374;28;96730;-70
2022/06/30 04:14:29;;;;;;;5.63;4.00;;;;;;;18.94;80.74;99981.31;30866060;28;96622;-71
2022/06/30 04:29:29;;;;;;;13.77;5.90;;;;;;;19.15;80.71;99965.63;30863138;28;96803;-68
2022/06/30 04:44:30;;;;;;;10.93;6.95;;;;;;;19.33;79.72;99997.09;30857962;28;96742;-72
2022/06/30 04:59:31;;;;;;;8.73;5.20;;;;;;;19.44;79.99;99987.38;30860317;28;96721;-71
2022/06/30 05:14:31;;;;;;;7.68;5.28;;;;;;;19.53;79.76;99972.47;30858903;28;97281;-68
2022/06/30 05:29:31;;;;;;;11.07;4.93;;;;;;;19.51;80.13;99965.66;30857562;28;96778;-70
2022/06/30 05:44:32;;;;;;;8.88;5.13;;;;;;;20.09;80.37;99961.25;30855573;28;97260;-67
2022/06/30 05:59:34;;;;;;;15.38;9.52;;;;;;;20.36;79.03;99961.53;30855152;28;96979;-72
2022/06/30 06:14:34;;;;;;;8.03;5.37;;;;;;;21.41;78.26;99963.09;30851748;28;96688;-69
2022/06/30 06:29:34;;;;;;;8.03;4.63;;;;;;;22.01;77.50;99949.84;30851728;28;104830;-69
2022/06/30 06:44:34;;;;;;;7.63;4.23;;;;;;;23.18;74.82;99971.19;30850783;28;97488;-70
2022/06/30 06:59:37;;;;;;;7.50;3.50;;;;;;;23.52;72.30;99970.91;30847872;28;97174;-67
2022/06/30 07:14:38;;;;;;;7.43;3.80;;;;;;;24.51;70.39;99956.69;30848071;28;96697;-70
2022/06/30 07:29:38;;;;;;;7.65;3.88;;;;;;;24.93;67.23;99947.53;30870144;28;96613;-64
2022/06/30 07:44:39;;;;;;;7.80;5.90;;;;;;;25.01;66.37;99978.84;30865963;28;97139;-70
2022/06/30 07:59:40;;;;;;;7.07;4.45;;;;;;;25.47;64.69;99976.13;30853707;28;96990;-69
2022/06/30 08:14:40;;;;;;;6.57;4.93;;;;;;;26.19;62.94;99956.03;30863649;28;97024;-68
2022/06/30 08:29:41;;;;;;;7.45;5.13;;;;;;;27.42;60.25;99950.81;30860748;28;97388;-72
2022/06/30 08:44:42;;;;;;;6.63;5.28;;;;;;;27.91;58.12;99944.25;30863159;28;96630;-69
2022/06/30 08:59:43;;;;;;;10.67;9.00;;;;;;;28.16;55.34;99936.88;30861672;28;97589;-70
2022/06/30 09:14:48;;;;;;;12.20;9.87;;;;;;;28.73;54.29;99927.84;30860862;28;97261;-73
2022/06/30 09:29:54;;;;;;;10.10;8.90;;;;;;;29.25;52.40;99933.31;30860909;28;96701;-71
2022/06/30 09:44:55;;;;;;;10.03;6.63;;;;;;;29.42;50.64;99930.00;30856796;28;97328;-80
2022/06/30 10:00:06;;;;;;;8.35;6.22;;;;;;;31.04;47.89;99920.47;30834593;28;99067;-78
2022/06/30 10:15:08;;;;;;;9.87;5.90;;;;;;;31.61;45.64;99902.44;30858190;28;96816;-69
2022/06/30 10:30:15;;;;;;;8.33;6.53;;;;;;;32.34;43.49;99887.34;30851720;28;97277;-80
2022/06/30 10:45:56;;;;;;;7.93;6.03;;;;;;;32.77;41.66;99877.47;30762337;28;97463;-78
2022/06/30 11:00:59;;;;;;;12.00;5.77;;;;;;;33.15;40.84;99874.75;30905005;28;97473;-75
2022/06/30 11:15:59;;;;;;;7.93;5.20;;;;;;;33.31;39.62;99886.09;30870086;28;97224;-70
2022/06/30 11:31:00;;;;;;;6.55;5.90;;;;;;;33.96;38.78;99872.09;30870832;28;97107;-65
2022/06/30 11:46:04;;;;;;;8.77;6.07;;;;;;;32.54;39.15;99870.16;30870648;28;96607;-68
2022/06/30 12:01:15;;;;;;;6.30;5.17;;;;;;;32.95;39.09;99868.00;30865357;28;97445;-69
2022/06/30 12:16:17;;;;;;;5.67;4.83;;;;;;;33.25;36.50;99862.56;30863920;28;97519;-73
2022/06/30 12:31:26;;;;;;;8.43;5.47;;;;;;;33.64;36.36;99855.06;30863528;28;97359;-66
2022/06/30 12:46:38;;;;;;;6.47;5.60;;;;;;;34.14;36.45;99839.63;30808042;28;98770;-69
2022/06/30 13:01:43;;;;;;;7.27;4.93;;;;;;;33.49;35.61;99819.75;30822322;28;96807;-67
2022/06/30 13:16:44;;;;;;;6.13;3.90;;;;;;;33.58;35.05;99823.25;30817360;28;98014;-61
2022/06/30 13:31:45;;;;;;;6.97;4.17;;;;;;;32.76;35.97;99806.91;30927749;28;96946;-63
2022/06/30 13:46:46;;;;;;;6.33;3.97;;;;;;;33.37;34.67;99796.44;30841685;28;97297;-80
2022/06/30 14:01:46;;;;;;;6.95;4.20;;;;;;;33.34;35.42;99783.31;30842091;28;97306;-62
2022/06/30 14:16:47;;;;;;;5.28;4.03;;;;;;;33.44;34.72;99784.06;30746257;28;97061;-63
2022/06/30 14:31:47;;;;;;;4.75;4.25;;;;;;;33.42;34.92;99780.81;30842426;28;97083;-67
2022/06/30 14:46:47;;;;;;;5.90;4.20;;;;;;;32.97;35.26;99776.63;30807393;28;98182;-74
2022/06/30 15:01:48;;;;;;;7.03;4.35;;;;;;;32.99;35.45;99768.84;30841172;28;96803;-64
2022/06/30 15:16:48;;;;;;;6.47;3.88;;;;;;;33.38;35.09;99769.63;30836842;28;98132;-66
2022/06/30 15:32:00;;;;;;;7.95;4.32;;;;;;;33.92;34.62;99777.22;30834435;28;97092;-69
2022/06/30 15:47:01;;;;;;;6.23;3.77;;;;;;;33.68;34.09;99747.50;30849979;28;97345;-70
2022/06/30 16:02:02;;;;;;;6.40;4.53;;;;;;;33.20;34.81;99730.25;30861892;28;97248;-78
2022/06/30 16:17:04;;;;;;;15.43;8.55;;;;;;;32.88;35.61;99729.78;30894096;28;96839;-76
2022/06/30 16:32:05;;;;;;;7.00;4.60;;;;;;;32.60;35.86;99713.63;30955112;28;97239;-73
2022/06/30 16:47:07;;;;;;;6.20;4.43;;;;;;;33.05;35.47;99717.84;30917604;28;97660;-63
2022/06/30 17:02:08;;;;;;;5.40;4.90;;;;;;;33.21;35.34;99698.75;30862723;28;97557;-72
2022/06/30 17:17:08;;;;;;;7.55;5.43;;;;;;;33.19;35.96;99690.00;30857399;28;96838;-72
2022/06/30 17:32:09;;;;;;;7.43;5.13;;;;;;;33.20;36.10;99714.53;30855893;28;97379;-70
2022/06/30 17:47:09;;;;;;;8.35;5.03;;;;;;;33.08;37.18;99706.16;30854296;28;96724;-76
2022/06/30 18:02:10;;;;;;;10.88;4.80;;;;;;;33.01;36.88;99716.88;30847220;28;97336;-71
2022/06/30 18:17:10;;;;;;;8.50;5.30;;;;;;;32.76;37.95;99711.19;30843393;28;96761;-74
2022/06/30 18:32:10;;;;;;;7.38;5.03;;;;;;;32.73;38.00;99706.34;30842525;28;97376;-66
2022/06/30 18:47:11;;;;;;;9.32;5.10;;;;;;;32.43;38.96;99714.53;30857629;28;97066;-66
2022/06/30 19:02:11;;;;;;;9.25;5.70;;;;;;;31.95;40.01;99743.91;30838376;28;96840;-62
2022/06/30 19:17:12;;;;;;;10.93;7.43;;;;;;;31.37;41.09;99730.25;30859190;28;97251;-69
2022/06/30 19:32:15;;;;;;;11.35;6.72;;;;;;;30.79;43.26;99737.66;30866688;28;97748;-69
2022/06/30 19:47:16;;;;;;;13.97;7.47;;;;;;;29.80;48.87;99732.13;30895236;28;96935;-64
2022/06/30 20:02:17;;;;;;;11.32;8.05;;;;;;;29.46;52.84;99725.25;30955954;28;97182;-64
2022/06/30 20:17:18;;;;;;;19.50;9.53;;;;;;;29.08;55.17;99717.25;30927122;28;97263;-73
2022/06/30 20:32:21;;;;;;;15.20;9.05;;;;;;;28.75;55.77;99718.16;30923531;28;97119;-74
2022/06/30 20:47:22;;;;;;;12.43;8.63;;;;;;;28.48;55.41;99721.63;30922676;28;97257;-74
2022/06/30 21:02:23;;;;;;;10.85;8.10;;;;;;;27.91;56.21;99752.66;30916702;28;97442;-75
2022/06/30 21:17:23;;;;;;;12.95;9.07;;;;;;;27.43;57.60;99755.53;30920466;28;96918;-77
2022/06/30 21:32:24;;;;;;;11.02;9.50;;;;;;;26.91;58.77;99772.50;30970819;28;106433;-66
2022/06/30 21:47:26;;;;;;;13.65;9.75;;;;;;;26.67;59.12;99770.53;30969210;28;97443;-72
2022/06/30 22:02:26;;;;;;;15.17;9.93;;;;;;;26.72;59.21;99774.34;30976766;28;97779;-74
2022/06/30 22:17:28;;;;;;;11.13;9.70;;;;;;;26.17;59.82;99758.94;30980328;28;97116;-75
2022/06/30 22:32:28;;;;;;;13.80;9.33;;;;;;;26.04;59.60;99754.13;30977597;28;97583;-77
2022/06/30 22:47:32;;;;;;;14.65;9.43;;;;;;;25.60;59.64;99737.47;30978396;28;96658;-76
2022/06/30 23:02:32;;;;;;;11.77;8.77;;;;;;;25.53;60.12;99719.78;30937567;28;96914;-63
2022/06/30 23:17:33;;;;;;;12.30;9.05;;;;;;;25.38;59.69;99715.22;30879027;28;96864;-62
2022/06/30 23:32:33;;;;;;;12.23;11.02;;;;;;;24.52;61.04;99715.19;30852682;28;96602;-74
2022/06/30 23:47:34;;;;;;;11.98;9.82;;;;;;;24.01;62.58;99713.31;30851365;28;97832;-76
